sensor_id;sensor_type;location;lat;lon;timestamp;P1;durP1;ratioP1;P2;durP2;ratioP2
54909;SDS011;63189;51.240;9.964;2023-03-03T00:01:48;54.45;;;25.92;;
54909;SDS011;63189;51.240;9.964;2023-03-03T00:04:15;57.67;;;28.65;;
54909;SDS011;63189;51.240;9.964;2023-03-03T00:06:41;58.85;;;27.67;;
54909;SDS011;63189;51.240;9.964;2023-03-03T00:09:08;56.65;;;28.52;;
54909;SDS011;63189;51.240;9.964;2023-03-03T00:11:36;66.25;;;31.17;;
54909;SDS011;63189;51.240;9.964;2023-03-03T00:14:09;68.63;;;32.90;;
54909;SDS011;63189;51.240;9.964;2023-03-03T00:16:42;68.85;;;31.65;;
54909;SDS011;63189;51.240;9.964;2023-03-03T00:19:14;61.60;;;30.13;;
54909;SDS011;63189;51.240;9.964;2023-03-03T00:22:01;65.00;;;29.42;;
54909;SDS011;63189;51.240;9.964;2023-03-03T00:24:34;68.53;;;30.98;;
54909;SDS011;63189;51.240;9.964;2023-03-03T00:30:05;53.30;;;26.10;;
54909;SDS011;63189;51.240;9.964;2023-03-03T00:32:44;67.90;;;32.33;;
54909;SDS011;63189;51.240;9.964;2023-03-03T00:37:58;53.03;;;26.30;;
54909;SDS011;63189;51.240;9.964;2023-03-03T00:45:48;45.78;;;22.58;;
54909;SDS011;63189;51.240;9.964;2023-03-03T00:48:18;47.88;;;24.38;;
54909;SDS011;63189;51.240;9.964;2023-03-03T00:50:46;43.38;;;21.63;;
54909;SDS011;63189;51.240;9.964;2023-03-03T00:53:16;52.63;;;25.35;;
54909;SDS011;63189;51.240;9.964;2023-03-03T00:55:43;49.70;;;24.85;;
54909;SDS011;63189;51.240;9.964;2023-03-03T00:58:09;47.13;;;23.23;;
54909;SDS011;63189;51.240;9.964;2023-03-03T01:00:35;53.17;;;24.77;;
54909;SDS011;63189;51.240;9.964;2023-03-03T01:03:02;50.20;;;24.25;;
54909;SDS011;63189;51.240;9.964;2023-03-03T01:05:30;41.70;;;21.17;;
54909;SDS011;63189;51.240;9.964;2023-03-03T01:07:55;47.53;;;23.17;;
54909;SDS011;63189;51.240;9.964;2023-03-03T01:10:21;50.47;;;23.15;;
54909;SDS011;63189;51.240;9.964;2023-03-03T01:12:46;44.55;;;21.15;;
54909;SDS011;63189;51.240;9.964;2023-03-03T01:15:12;48.15;;;22.75;;
54909;SDS011;63189;51.240;9.964;2023-03-03T01:17:39;46.13;;;22.48;;
54909;SDS011;63189;51.240;9.964;2023-03-03T01:20:06;51.85;;;25.17;;
54909;SDS011;63189;51.240;9.964;2023-03-03T01:22:33;57.13;;;27.52;;
54909;SDS011;63189;51.240;9.964;2023-03-03T01:24:59;58.38;;;27.55;;
54909;SDS011;63189;51.240;9.964;2023-03-03T01:27:24;49.58;;;23.98;;
54909;SDS011;63189;51.240;9.964;2023-03-03T01:29:49;51.95;;;24.55;;
54909;SDS011;63189;51.240;9.964;2023-03-03T01:32:15;51.30;;;24.58;;
54909;SDS011;63189;51.240;9.964;2023-03-03T01:34:40;51.72;;;24.10;;
54909;SDS011;63189;51.240;9.964;2023-03-03T01:37:06;50.45;;;24.05;;
54909;SDS011;63189;51.240;9.964;2023-03-03T01:39:31;47.30;;;22.80;;
54909;SDS011;63189;51.240;9.964;2023-03-03T01:41:56;37.80;;;19.55;;
54909;SDS011;63189;51.240;9.964;2023-03-03T01:44:22;43.70;;;21.23;;
54909;SDS011;63189;51.240;9.964;2023-03-03T01:46:50;45.28;;;20.63;;
54909;SDS011;63189;51.240;9.964;2023-03-03T01:54:35;38.63;;;18.52;;
54909;SDS011;63189;51.240;9.964;2023-03-03T01:57:06;39.60;;;18.67;;
54909;SDS011;63189;51.240;9.964;2023-03-03T01:59:39;39.20;;;19.38;;
54909;SDS011;63189;51.240;9.964;2023-03-03T02:02:10;30.40;;;16.00;;
54909;SDS011;63189;51.240;9.964;2023-03-03T02:04:36;37.47;;;17.98;;
54909;SDS011;63189;51.240;9.964;2023-03-03T02:07:02;41.85;;;20.08;;
54909;SDS011;63189;51.240;9.964;2023-03-03T02:12:40;32.10;;;14.88;;
54909;SDS011;63189;51.240;9.964;2023-03-03T02:17:54;35.92;;;17.10;;
54909;SDS011;63189;51.240;9.964;2023-03-03T02:20:26;37.83;;;18.73;;
54909;SDS011;63189;51.240;9.964;2023-03-03T02:42:26;37.03;;;15.88;;
54909;SDS011;63189;51.240;9.964;2023-03-03T02:44:53;40.22;;;18.48;;
54909;SDS011;63189;51.240;9.964;2023-03-03T02:47:19;35.15;;;15.48;;
54909;SDS011;63189;51.240;9.964;2023-03-03T02:49:45;33.97;;;16.83;;
54909;SDS011;63189;51.240;9.964;2023-03-03T02:52:11;38.83;;;17.08;;
54909;SDS011;63189;51.240;9.964;2023-03-03T02:54:36;42.17;;;18.30;;
54909;SDS011;63189;51.240;9.964;2023-03-03T02:57:02;40.38;;;18.98;;
54909;SDS011;63189;51.240;9.964;2023-03-03T02:59:29;42.65;;;18.55;;
54909;SDS011;63189;51.240;9.964;2023-03-03T03:01:54;34.58;;;16.55;;
54909;SDS011;63189;51.240;9.964;2023-03-03T03:04:21;32.08;;;15.50;;
54909;SDS011;63189;51.240;9.964;2023-03-03T03:06:51;33.42;;;16.50;;
54909;SDS011;63189;51.240;9.964;2023-03-03T03:09:18;38.40;;;17.40;;
54909;SDS011;63189;51.240;9.964;2023-03-03T03:11:45;43.78;;;19.35;;
54909;SDS011;63189;51.240;9.964;2023-03-03T03:14:11;37.92;;;16.98;;
54909;SDS011;63189;51.240;9.964;2023-03-03T03:16:38;32.42;;;15.93;;
54909;SDS011;63189;51.240;9.964;2023-03-03T03:19:03;41.53;;;19.10;;
54909;SDS011;63189;51.240;9.964;2023-03-03T03:21:29;43.38;;;18.80;;
54909;SDS011;63189;51.240;9.964;2023-03-03T03:23:55;37.63;;;17.95;;
54909;SDS011;63189;51.240;9.964;2023-03-03T03:26:20;42.05;;;18.08;;
54909;SDS011;63189;51.240;9.964;2023-03-03T03:28:49;47.53;;;20.20;;
54909;SDS011;63189;51.240;9.964;2023-03-03T03:31:15;44.42;;;17.98;;
54909;SDS011;63189;51.240;9.964;2023-03-03T03:33:42;35.95;;;16.45;;
54909;SDS011;63189;51.240;9.964;2023-03-03T03:36:07;39.85;;;17.15;;
54909;SDS011;63189;51.240;9.964;2023-03-03T03:38:33;36.88;;;16.50;;
54909;SDS011;63189;51.240;9.964;2023-03-03T03:41:00;41.30;;;17.65;;
54909;SDS011;63189;51.240;9.964;2023-03-03T03:43:26;44.60;;;19.25;;
54909;SDS011;63189;51.240;9.964;2023-03-03T03:45:51;35.38;;;16.80;;
54909;SDS011;63189;51.240;9.964;2023-03-03T03:48:17;43.85;;;18.35;;
54909;SDS011;63189;51.240;9.964;2023-03-03T03:50:44;40.55;;;17.45;;
54909;SDS011;63189;51.240;9.964;2023-03-03T03:53:10;37.75;;;17.02;;
54909;SDS011;63189;51.240;9.964;2023-03-03T03:55:36;35.10;;;15.27;;
54909;SDS011;63189;51.240;9.964;2023-03-03T03:58:01;37.40;;;15.65;;
54909;SDS011;63189;51.240;9.964;2023-03-03T04:00:26;46.60;;;19.50;;
54909;SDS011;63189;51.240;9.964;2023-03-03T04:02:53;40.05;;;16.95;;
54909;SDS011;63189;51.240;9.964;2023-03-03T04:05:18;40.38;;;16.35;;
54909;SDS011;63189;51.240;9.964;2023-03-03T04:07:43;36.58;;;15.43;;
54909;SDS011;63189;51.240;9.964;2023-03-03T04:10:09;37.80;;;16.75;;
54909;SDS011;63189;51.240;9.964;2023-03-03T04:12:35;40.13;;;17.40;;
54909;SDS011;63189;51.240;9.964;2023-03-03T04:15:07;39.88;;;16.60;;
54909;SDS011;63189;51.240;9.964;2023-03-03T04:17:34;46.05;;;18.70;;
54909;SDS011;63189;51.240;9.964;2023-03-03T04:19:59;38.63;;;15.68;;
54909;SDS011;63189;51.240;9.964;2023-03-03T04:22:25;35.80;;;15.35;;
54909;SDS011;63189;51.240;9.964;2023-03-03T04:24:50;44.13;;;18.30;;
54909;SDS011;63189;51.240;9.964;2023-03-03T04:27:15;38.83;;;15.60;;
54909;SDS011;63189;51.240;9.964;2023-03-03T04:29:41;29.35;;;13.13;;
54909;SDS011;63189;51.240;9.964;2023-03-03T04:32:06;41.33;;;16.30;;
54909;SDS011;63189;51.240;9.964;2023-03-03T04:34:32;29.45;;;13.43;;
54909;SDS011;63189;51.240;9.964;2023-03-03T04:36:57;32.08;;;13.98;;
54909;SDS011;63189;51.240;9.964;2023-03-03T04:39:23;34.72;;;14.73;;
54909;SDS011;63189;51.240;9.964;2023-03-03T04:41:48;34.63;;;14.10;;
54909;SDS011;63189;51.240;9.964;2023-03-03T04:44:13;27.60;;;12.60;;
54909;SDS011;63189;51.240;9.964;2023-03-03T04:46:39;34.80;;;15.55;;
54909;SDS011;63189;51.240;9.964;2023-03-03T04:49:04;34.95;;;14.45;;
54909;SDS011;63189;51.240;9.964;2023-03-03T04:51:32;30.95;;;13.07;;
54909;SDS011;63189;51.240;9.964;2023-03-03T04:53:58;32.97;;;14.35;;
54909;SDS011;63189;51.240;9.964;2023-03-03T04:56:23;34.45;;;14.25;;
54909;SDS011;63189;51.240;9.964;2023-03-03T04:58:48;30.30;;;13.55;;
54909;SDS011;63189;51.240;9.964;2023-03-03T05:01:13;36.80;;;15.98;;
54909;SDS011;63189;51.240;9.964;2023-03-03T05:03:39;48.67;;;18.70;;
54909;SDS011;63189;51.240;9.964;2023-03-03T05:06:05;39.05;;;16.58;;
54909;SDS011;63189;51.240;9.964;2023-03-03T05:08:31;48.28;;;19.02;;
54909;SDS011;63189;51.240;9.964;2023-03-03T05:10:56;37.88;;;15.13;;
54909;SDS011;63189;51.240;9.964;2023-03-03T05:13:23;35.70;;;15.05;;
54909;SDS011;63189;51.240;9.964;2023-03-03T05:15:51;40.40;;;15.40;;
54909;SDS011;63189;51.240;9.964;2023-03-03T05:18:19;36.33;;;15.63;;
54909;SDS011;63189;51.240;9.964;2023-03-03T05:20:45;40.38;;;17.23;;
54909;SDS011;63189;51.240;9.964;2023-03-03T05:23:11;40.17;;;15.95;;
54909;SDS011;63189;51.240;9.964;2023-03-03T05:25:36;38.08;;;16.30;;
54909;SDS011;63189;51.240;9.964;2023-03-03T05:28:02;34.03;;;15.27;;
54909;SDS011;63189;51.240;9.964;2023-03-03T05:30:28;37.53;;;15.95;;
54909;SDS011;63189;51.240;9.964;2023-03-03T05:32:54;35.95;;;15.65;;
54909;SDS011;63189;51.240;9.964;2023-03-03T05:35:19;35.42;;;16.00;;
54909;SDS011;63189;51.240;9.964;2023-03-03T05:37:45;54.45;;;20.67;;
54909;SDS011;63189;51.240;9.964;2023-03-03T05:40:22;48.00;;;18.42;;
54909;SDS011;63189;51.240;9.964;2023-03-03T05:42:48;74.38;;;19.95;;
54909;SDS011;63189;51.240;9.964;2023-03-03T05:45:14;52.78;;;18.23;;
54909;SDS011;63189;51.240;9.964;2023-03-03T05:47:39;39.00;;;17.98;;
54909;SDS011;63189;51.240;9.964;2023-03-03T05:50:05;59.38;;;20.25;;
54909;SDS011;63189;51.240;9.964;2023-03-03T05:52:30;47.95;;;19.17;;
54909;SDS011;63189;51.240;9.964;2023-03-03T05:54:55;63.13;;;21.70;;
54909;SDS011;63189;51.240;9.964;2023-03-03T05:57:21;39.00;;;16.50;;
54909;SDS011;63189;51.240;9.964;2023-03-03T05:59:47;37.90;;;16.23;;
54909;SDS011;63189;51.240;9.964;2023-03-03T06:02:12;36.47;;;16.20;;
54909;SDS011;63189;51.240;9.964;2023-03-03T06:04:38;39.70;;;17.30;;
54909;SDS011;63189;51.240;9.964;2023-03-03T06:07:04;64.13;;;18.92;;
54909;SDS011;63189;51.240;9.964;2023-03-03T06:09:29;46.50;;;17.70;;
54909;SDS011;63189;51.240;9.964;2023-03-03T06:11:56;45.65;;;18.13;;
54909;SDS011;63189;51.240;9.964;2023-03-03T06:14:21;37.10;;;15.15;;
54909;SDS011;63189;51.240;9.964;2023-03-03T06:16:47;41.45;;;17.42;;
54909;SDS011;63189;51.240;9.964;2023-03-03T06:19:12;41.35;;;17.10;;
54909;SDS011;63189;51.240;9.964;2023-03-03T06:21:38;39.10;;;16.90;;
54909;SDS011;63189;51.240;9.964;2023-03-03T06:24:05;43.35;;;17.50;;
54909;SDS011;63189;51.240;9.964;2023-03-03T06:26:31;34.72;;;15.80;;
54909;SDS011;63189;51.240;9.964;2023-03-03T06:28:56;43.67;;;17.05;;
54909;SDS011;63189;51.240;9.964;2023-03-03T06:31:22;50.05;;;17.02;;
54909;SDS011;63189;51.240;9.964;2023-03-03T06:33:47;38.78;;;16.75;;
54909;SDS011;63189;51.240;9.964;2023-03-03T06:36:12;43.38;;;16.80;;
54909;SDS011;63189;51.240;9.964;2023-03-03T06:38:38;31.65;;;13.55;;
54909;SDS011;63189;51.240;9.964;2023-03-03T06:41:03;32.53;;;13.63;;
54909;SDS011;63189;51.240;9.964;2023-03-03T06:43:32;35.28;;;14.43;;
54909;SDS011;63189;51.240;9.964;2023-03-03T06:45:57;33.28;;;13.35;;
54909;SDS011;63189;51.240;9.964;2023-03-03T06:48:23;40.08;;;15.45;;
54909;SDS011;63189;51.240;9.964;2023-03-03T06:50:48;50.17;;;15.25;;
54909;SDS011;63189;51.240;9.964;2023-03-03T06:53:14;40.47;;;15.75;;
54909;SDS011;63189;51.240;9.964;2023-03-03T06:55:41;35.05;;;14.80;;
54909;SDS011;63189;51.240;9.964;2023-03-03T06:58:12;52.10;;;16.98;;
54909;SDS011;63189;51.240;9.964;2023-03-03T07:00:40;33.05;;;15.65;;
54909;SDS011;63189;51.240;9.964;2023-03-03T07:05:57;42.45;;;15.45;;
54909;SDS011;63189;51.240;9.964;2023-03-03T07:08:23;37.55;;;15.30;;
54909;SDS011;63189;51.240;9.964;2023-03-03T07:10:50;29.67;;;12.60;;
54909;SDS011;63189;51.240;9.964;2023-03-03T07:13:26;35.97;;;14.80;;
54909;SDS011;63189;51.240;9.964;2023-03-03T07:15:53;35.05;;;13.73;;
54909;SDS011;63189;51.240;9.964;2023-03-03T07:18:34;45.10;;;17.25;;
54909;SDS011;63189;51.240;9.964;2023-03-03T07:21:15;34.28;;;14.20;;
54909;SDS011;63189;51.240;9.964;2023-03-03T07:23:44;30.58;;;14.35;;
54909;SDS011;63189;51.240;9.964;2023-03-03T07:26:11;29.17;;;13.40;;
54909;SDS011;63189;51.240;9.964;2023-03-03T07:28:42;38.35;;;16.38;;
54909;SDS011;63189;51.240;9.964;2023-03-03T07:33:50;30.50;;;13.27;;
54909;SDS011;63189;51.240;9.964;2023-03-03T07:36:26;33.08;;;14.43;;
54909;SDS011;63189;51.240;9.964;2023-03-03T07:39:00;31.80;;;13.85;;
54909;SDS011;63189;51.240;9.964;2023-03-03T07:41:38;36.25;;;13.30;;
54909;SDS011;63189;51.240;9.964;2023-03-03T07:44:04;40.85;;;15.60;;
54909;SDS011;63189;51.240;9.964;2023-03-03T07:46:41;83.43;;;18.83;;
54909;SDS011;63189;51.240;9.964;2023-03-03T07:52:16;33.23;;;13.33;;
54909;SDS011;63189;51.240;9.964;2023-03-03T07:54:47;26.25;;;11.13;;
54909;SDS011;63189;51.240;9.964;2023-03-03T07:57:25;34.00;;;12.52;;
54909;SDS011;63189;51.240;9.964;2023-03-03T08:00:00;33.15;;;14.23;;
54909;SDS011;63189;51.240;9.964;2023-03-03T08:02:47;32.45;;;13.55;;
54909;SDS011;63189;51.240;9.964;2023-03-03T08:08:14;64.00;;;18.65;;
54909;SDS011;63189;51.240;9.964;2023-03-03T08:10:57;44.30;;;15.73;;
54909;SDS011;63189;51.240;9.964;2023-03-03T08:13:39;29.33;;;12.60;;
54909;SDS011;63189;51.240;9.964;2023-03-03T08:18:35;41.85;;;15.18;;
54909;SDS011;63189;51.240;9.964;2023-03-03T08:23:35;37.35;;;14.73;;
54909;SDS011;63189;51.240;9.964;2023-03-03T08:26:00;38.25;;;12.63;;
54909;SDS011;63189;51.240;9.964;2023-03-03T08:28:25;27.27;;;11.93;;
54909;SDS011;63189;51.240;9.964;2023-03-03T08:30:51;25.63;;;11.27;;
54909;SDS011;63189;51.240;9.964;2023-03-03T08:33:17;19.92;;;10.05;;
54909;SDS011;63189;51.240;9.964;2023-03-03T08:35:43;32.78;;;13.05;;
54909;SDS011;63189;51.240;9.964;2023-03-03T08:38:09;24.25;;;11.52;;
54909;SDS011;63189;51.240;9.964;2023-03-03T08:40:35;23.45;;;11.05;;
54909;SDS011;63189;51.240;9.964;2023-03-03T08:43:01;24.67;;;11.50;;
54909;SDS011;63189;51.240;9.964;2023-03-03T08:45:27;23.90;;;11.70;;
54909;SDS011;63189;51.240;9.964;2023-03-03T08:47:52;27.02;;;11.77;;
54909;SDS011;63189;51.240;9.964;2023-03-03T08:50:18;24.73;;;11.25;;
54909;SDS011;63189;51.240;9.964;2023-03-03T08:52:43;26.90;;;11.63;;
54909;SDS011;63189;51.240;9.964;2023-03-03T08:55:10;24.77;;;11.13;;
54909;SDS011;63189;51.240;9.964;2023-03-03T08:57:35;28.75;;;12.35;;
54909;SDS011;63189;51.240;9.964;2023-03-03T09:00:01;22.98;;;10.25;;
54909;SDS011;63189;51.240;9.964;2023-03-03T09:02:26;31.00;;;12.63;;
54909;SDS011;63189;51.240;9.964;2023-03-03T09:04:52;30.65;;;13.60;;
54909;SDS011;63189;51.240;9.964;2023-03-03T09:07:17;24.95;;;10.75;;
54909;SDS011;63189;51.240;9.964;2023-03-03T09:09:43;23.42;;;10.90;;
54909;SDS011;63189;51.240;9.964;2023-03-03T09:12:26;26.42;;;11.93;;
54909;SDS011;63189;51.240;9.964;2023-03-03T09:14:55;26.13;;;11.95;;
54909;SDS011;63189;51.240;9.964;2023-03-03T09:17:24;28.60;;;12.45;;
54909;SDS011;63189;51.240;9.964;2023-03-03T09:20:03;29.35;;;13.25;;
54909;SDS011;63189;51.240;9.964;2023-03-03T09:22:46;23.77;;;10.20;;
54909;SDS011;63189;51.240;9.964;2023-03-03T09:25:22;24.35;;;10.55;;
54909;SDS011;63189;51.240;9.964;2023-03-03T09:27:56;27.08;;;12.48;;
54909;SDS011;63189;51.240;9.964;2023-03-03T09:32:50;30.75;;;13.60;;
54909;SDS011;63189;51.240;9.964;2023-03-03T09:35:36;28.50;;;12.07;;
54909;SDS011;63189;51.240;9.964;2023-03-03T09:38:17;24.02;;;11.02;;
54909;SDS011;63189;51.240;9.964;2023-03-03T09:40:49;26.08;;;11.98;;
54909;SDS011;63189;51.240;9.964;2023-03-03T09:43:41;24.80;;;10.32;;
54909;SDS011;63189;51.240;9.964;2023-03-03T09:46:19;19.15;;;9.18;;
54909;SDS011;63189;51.240;9.964;2023-03-03T09:57:08;21.15;;;10.57;;
54909;SDS011;63189;51.240;9.964;2023-03-03T09:59:45;23.40;;;10.43;;
54909;SDS011;63189;51.240;9.964;2023-03-03T10:02:25;22.55;;;10.35;;
54909;SDS011;63189;51.240;9.964;2023-03-03T10:05:11;22.70;;;10.57;;
54909;SDS011;63189;51.240;9.964;2023-03-03T10:08:02;28.73;;;12.43;;
54909;SDS011;63189;51.240;9.964;2023-03-03T10:18:49;24.02;;;10.40;;
54909;SDS011;63189;51.240;9.964;2023-03-03T10:33:00;26.63;;;12.70;;
54909;SDS011;63189;51.240;9.964;2023-03-03T10:35:41;25.52;;;11.52;;
54909;SDS011;63189;51.240;9.964;2023-03-03T10:38:33;35.83;;;14.73;;
54909;SDS011;63189;51.240;9.964;2023-03-03T10:41:17;27.27;;;12.07;;
54909;SDS011;63189;51.240;9.964;2023-03-03T10:44:01;27.70;;;12.90;;
54909;SDS011;63189;51.240;9.964;2023-03-03T11:00:20;24.77;;;11.23;;
54909;SDS011;63189;51.240;9.964;2023-03-03T11:08:00;28.38;;;12.57;;
54909;SDS011;63189;51.240;9.964;2023-03-03T11:13:13;22.15;;;10.40;;
54909;SDS011;63189;51.240;9.964;2023-03-03T11:15:48;22.25;;;11.23;;
54909;SDS011;63189;51.240;9.964;2023-03-03T11:38:03;19.27;;;9.38;;
54909;SDS011;63189;51.240;9.964;2023-03-03T11:40:56;23.13;;;11.52;;
54909;SDS011;63189;51.240;9.964;2023-03-03T11:46:12;20.55;;;9.30;;
54909;SDS011;63189;51.240;9.964;2023-03-03T11:53:56;22.38;;;9.68;;
54909;SDS011;63189;51.240;9.964;2023-03-03T11:56:24;23.42;;;10.05;;
54909;SDS011;63189;51.240;9.964;2023-03-03T11:58:57;21.60;;;9.23;;
54909;SDS011;63189;51.240;9.964;2023-03-03T12:04:38;24.73;;;10.75;;
54909;SDS011;63189;51.240;9.964;2023-03-03T12:15:57;20.88;;;9.93;;
54909;SDS011;63189;51.240;9.964;2023-03-03T12:21:24;21.52;;;10.70;;
54909;SDS011;63189;51.240;9.964;2023-03-03T12:24:02;16.00;;;7.20;;
54909;SDS011;63189;51.240;9.964;2023-03-03T12:29:24;20.48;;;9.82;;
54909;SDS011;63189;51.240;9.964;2023-03-03T12:32:19;22.95;;;11.43;;
54909;SDS011;63189;51.240;9.964;2023-03-03T12:34:57;16.00;;;8.02;;
54909;SDS011;63189;51.240;9.964;2023-03-03T12:40:18;22.15;;;9.55;;
54909;SDS011;63189;51.240;9.964;2023-03-03T12:45:44;13.32;;;6.57;;
54909;SDS011;63189;51.240;9.964;2023-03-03T12:48:27;14.88;;;6.97;;
54909;SDS011;63189;51.240;9.964;2023-03-03T12:54:09;13.98;;;6.65;;
54909;SDS011;63189;51.240;9.964;2023-03-03T12:56:53;14.27;;;6.63;;
54909;SDS011;63189;51.240;9.964;2023-03-03T13:05:32;21.05;;;7.55;;
54909;SDS011;63189;51.240;9.964;2023-03-03T13:08:16;16.75;;;8.25;;
54909;SDS011;63189;51.240;9.964;2023-03-03T13:11:06;15.05;;;7.40;;
54909;SDS011;63189;51.240;9.964;2023-03-03T13:16:27;13.32;;;6.97;;
54909;SDS011;63189;51.240;9.964;2023-03-03T13:19:03;16.65;;;7.57;;
54909;SDS011;63189;51.240;9.964;2023-03-03T13:21:38;17.02;;;7.80;;
54909;SDS011;63189;51.240;9.964;2023-03-03T13:27:06;15.60;;;8.32;;
54909;SDS011;63189;51.240;9.964;2023-03-03T13:30:47;14.82;;;7.05;;
54909;SDS011;63189;51.240;9.964;2023-03-03T13:35:53;14.30;;;7.30;;
54909;SDS011;63189;51.240;9.964;2023-03-03T13:38:41;15.05;;;7.93;;
54909;SDS011;63189;51.240;9.964;2023-03-03T13:43:59;16.73;;;8.52;;
54909;SDS011;63189;51.240;9.964;2023-03-03T13:46:33;16.15;;;8.00;;
54909;SDS011;63189;51.240;9.964;2023-03-03T13:54:15;16.70;;;8.20;;
54909;SDS011;63189;51.240;9.964;2023-03-03T13:57:10;14.23;;;7.75;;
54909;SDS011;63189;51.240;9.964;2023-03-03T14:05:39;15.18;;;7.50;;
54909;SDS011;63189;51.240;9.964;2023-03-03T14:10:46;12.60;;;7.50;;
54909;SDS011;63189;51.240;9.964;2023-03-03T14:13:24;12.35;;;7.20;;
54909;SDS011;63189;51.240;9.964;2023-03-03T14:15:57;11.48;;;5.68;;
54909;SDS011;63189;51.240;9.964;2023-03-03T14:24:03;14.07;;;7.95;;
54909;SDS011;63189;51.240;9.964;2023-03-03T14:26:49;13.20;;;7.40;;
54909;SDS011;63189;51.240;9.964;2023-03-03T14:29:20;12.90;;;6.88;;
54909;SDS011;63189;51.240;9.964;2023-03-03T14:31:55;15.23;;;7.30;;
54909;SDS011;63189;51.240;9.964;2023-03-03T14:36:51;10.55;;;6.05;;
54909;SDS011;63189;51.240;9.964;2023-03-03T14:39:31;10.90;;;6.60;;
54909;SDS011;63189;51.240;9.964;2023-03-03T14:41:58;11.05;;;6.45;;
54909;SDS011;63189;51.240;9.964;2023-03-03T14:44:29;13.52;;;6.60;;
54909;SDS011;63189;51.240;9.964;2023-03-03T14:47:05;17.10;;;7.10;;
54909;SDS011;63189;51.240;9.964;2023-03-03T14:49:36;15.25;;;6.93;;
54909;SDS011;63189;51.240;9.964;2023-03-03T14:54:57;10.25;;;5.55;;
54909;SDS011;63189;51.240;9.964;2023-03-03T15:00:45;11.38;;;6.18;;
54909;SDS011;63189;51.240;9.964;2023-03-03T15:05:18;11.57;;;6.75;;
54909;SDS011;63189;51.240;9.964;2023-03-03T15:08:11;12.73;;;7.38;;
54909;SDS011;63189;51.240;9.964;2023-03-03T15:10:38;14.95;;;7.80;;
54909;SDS011;63189;51.240;9.964;2023-03-03T15:18:23;12.07;;;6.95;;
54909;SDS011;63189;51.240;9.964;2023-03-03T15:20:59;15.80;;;7.88;;
54909;SDS011;63189;51.240;9.964;2023-03-03T15:23:30;10.40;;;5.93;;
54909;SDS011;63189;51.240;9.964;2023-03-03T15:39:33;13.68;;;7.30;;
54909;SDS011;63189;51.240;9.964;2023-03-03T15:42:04;14.13;;;6.85;;
54909;SDS011;63189;51.240;9.964;2023-03-03T15:47:37;12.02;;;7.10;;
54909;SDS011;63189;51.240;9.964;2023-03-03T15:57:55;12.60;;;6.93;;
54909;SDS011;63189;51.240;9.964;2023-03-03T16:00:36;13.63;;;7.43;;
54909;SDS011;63189;51.240;9.964;2023-03-03T16:03:32;14.82;;;7.97;;
54909;SDS011;63189;51.240;9.964;2023-03-03T16:06:14;11.75;;;6.90;;
54909;SDS011;63189;51.240;9.964;2023-03-03T16:11:23;18.40;;;9.02;;
54909;SDS011;63189;51.240;9.964;2023-03-03T16:14:02;15.48;;;8.40;;
54909;SDS011;63189;51.240;9.964;2023-03-03T16:16:37;14.82;;;8.70;;
54909;SDS011;63189;51.240;9.964;2023-03-03T16:24:38;14.10;;;7.82;;
54909;SDS011;63189;51.240;9.964;2023-03-03T16:30:09;19.15;;;9.70;;
54909;SDS011;63189;51.240;9.964;2023-03-03T16:35:28;19.13;;;9.80;;
54909;SDS011;63189;51.240;9.964;2023-03-03T16:40:53;14.80;;;7.28;;
54909;SDS011;63189;51.240;9.964;2023-03-03T16:48:52;13.18;;;6.72;;
54909;SDS011;63189;51.240;9.964;2023-03-03T17:00:10;22.08;;;7.57;;
54909;SDS011;63189;51.240;9.964;2023-03-03T17:05:27;68.82;;;32.70;;
54909;SDS011;63189;51.240;9.964;2023-03-03T17:11:31;21.27;;;10.55;;
54909;SDS011;63189;51.240;9.964;2023-03-03T17:30:35;12.90;;;6.78;;
54909;SDS011;63189;51.240;9.964;2023-03-03T17:38:24;12.55;;;7.13;;
54909;SDS011;63189;51.240;9.964;2023-03-03T17:46:15;13.00;;;6.93;;
54909;SDS011;63189;51.240;9.964;2023-03-03T18:09:47;14.52;;;7.72;;
54909;SDS011;63189;51.240;9.964;2023-03-03T18:22:42;13.90;;;6.95;;
54909;SDS011;63189;51.240;9.964;2023-03-03T18:27:37;19.35;;;10.30;;
54909;SDS011;63189;51.240;9.964;2023-03-03T18:38:16;21.25;;;10.65;;
54909;SDS011;63189;51.240;9.964;2023-03-03T18:43:38;20.98;;;11.43;;
54909;SDS011;63189;51.240;9.964;2023-03-03T18:54:19;23.95;;;13.63;;
54909;SDS011;63189;51.240;9.964;2023-03-03T19:04:53;31.77;;;16.65;;
54909;SDS011;63189;51.240;9.964;2023-03-03T19:10:40;26.98;;;15.07;;
54909;SDS011;63189;51.240;9.964;2023-03-03T19:15:56;26.17;;;15.18;;
54909;SDS011;63189;51.240;9.964;2023-03-03T19:18:24;34.83;;;16.42;;
54909;SDS011;63189;51.240;9.964;2023-03-03T19:20:54;28.52;;;14.77;;
54909;SDS011;63189;51.240;9.964;2023-03-03T19:28:56;24.55;;;14.38;;
54909;SDS011;63189;51.240;9.964;2023-03-03T19:42:38;24.65;;;13.13;;
54909;SDS011;63189;51.240;9.964;2023-03-03T19:48:05;24.60;;;14.60;;
54909;SDS011;63189;51.240;9.964;2023-03-03T19:50:47;25.63;;;13.40;;
54909;SDS011;63189;51.240;9.964;2023-03-03T19:53:34;22.20;;;12.02;;
54909;SDS011;63189;51.240;9.964;2023-03-03T19:56:28;29.60;;;14.55;;
54909;SDS011;63189;51.240;9.964;2023-03-03T19:59:38;57.20;;;25.90;;
54909;SDS011;63189;51.240;9.964;2023-03-03T20:10:03;55.10;;;25.23;;
54909;SDS011;63189;51.240;9.964;2023-03-03T20:21:08;47.25;;;22.40;;
54909;SDS011;63189;51.240;9.964;2023-03-03T20:26:21;39.60;;;19.75;;
54909;SDS011;63189;51.240;9.964;2023-03-03T20:32:14;37.85;;;19.23;;
54909;SDS011;63189;51.240;9.964;2023-03-03T20:37:48;28.50;;;16.00;;
54909;SDS011;63189;51.240;9.964;2023-03-03T20:40:30;34.08;;;17.90;;
54909;SDS011;63189;51.240;9.964;2023-03-03T20:45:38;34.20;;;17.70;;
54909;SDS011;63189;51.240;9.964;2023-03-03T20:48:08;32.10;;;15.68;;
54909;SDS011;63189;51.240;9.964;2023-03-03T20:50:58;33.97;;;16.88;;
54909;SDS011;63189;51.240;9.964;2023-03-03T21:01:52;23.30;;;13.07;;
54909;SDS011;63189;51.240;9.964;2023-03-03T21:04:45;23.85;;;13.63;;
54909;SDS011;63189;51.240;9.964;2023-03-03T21:07:31;27.17;;;13.52;;
54909;SDS011;63189;51.240;9.964;2023-03-03T21:10:11;26.88;;;14.18;;
54909;SDS011;63189;51.240;9.964;2023-03-03T21:12:39;22.08;;;12.20;;
54909;SDS011;63189;51.240;9.964;2023-03-03T21:15:25;24.83;;;12.52;;
54909;SDS011;63189;51.240;9.964;2023-03-03T21:17:51;22.60;;;12.35;;
54909;SDS011;63189;51.240;9.964;2023-03-03T21:22:47;20.02;;;10.93;;
54909;SDS011;63189;51.240;9.964;2023-03-03T21:31:12;20.65;;;11.10;;
54909;SDS011;63189;51.240;9.964;2023-03-03T21:36:08;26.17;;;13.50;;
54909;SDS011;63189;51.240;9.964;2023-03-03T21:38:36;24.77;;;11.93;;
54909;SDS011;63189;51.240;9.964;2023-03-03T21:41:03;28.30;;;13.85;;
54909;SDS011;63189;51.240;9.964;2023-03-03T21:43:31;23.23;;;11.57;;
54909;SDS011;63189;51.240;9.964;2023-03-03T21:45:58;25.60;;;11.90;;
54909;SDS011;63189;51.240;9.964;2023-03-03T21:48:24;27.40;;;12.52;;
54909;SDS011;63189;51.240;9.964;2023-03-03T21:50:49;35.10;;;15.07;;
54909;SDS011;63189;51.240;9.964;2023-03-03T21:53:14;35.40;;;15.48;;
54909;SDS011;63189;51.240;9.964;2023-03-03T21:55:40;34.38;;;14.93;;
54909;SDS011;63189;51.240;9.964;2023-03-03T21:58:08;32.30;;;14.43;;
54909;SDS011;63189;51.240;9.964;2023-03-03T22:00:33;36.30;;;16.17;;
54909;SDS011;63189;51.240;9.964;2023-03-03T22:02:59;30.65;;;14.25;;
54909;SDS011;63189;51.240;9.964;2023-03-03T22:05:24;31.27;;;14.18;;